sensor_id;sensor_type;location;lat;lon;timestamp;temperature;humidity
22779;DHT22;11556;51.194;3.800;2023-12-04T00:00:46;4.30;99.90
22779;DHT22;11556;51.194;3.800;2023-12-04T00:03:12;4.20;99.90
22779;DHT22;11556;51.194;3.800;2023-12-04T00:05:38;4.20;99.90
22779;DHT22;11556;51.194;3.800;2023-12-04T00:08:03;4.20;99.90
22779;DHT22;11556;51.194;3.800;2023-12-04T00:10:29;4.20;99.90
22779;DHT22;11556;51.194;3.800;2023-12-04T00:12:55;4.20;99.90
22779;DHT22;11556;51.194;3.800;2023-12-04T00:15:20;4.30;99.90
22779;DHT22;11556;51.194;3.800;2023-12-04T00:17:47;4.20;99.90
22779;DHT22;11556;51.194;3.800;2023-12-04T00:20:12;4.20;99.90
22779;DHT22;11556;51.194;3.800;2023-12-04T00:22:38;4.20;99.90
22779;DHT22;11556;51.194;3.800;2023-12-04T00:25:05;4.10;99.90
22779;DHT22;11556;51.194;3.800;2023-12-04T00:27:32;4.10;99.90
22779;DHT22;11556;51.194;3.800;2023-12-04T00:29:57;4.00;99.90
22779;DHT22;11556;51.194;3.800;2023-12-04T00:32:24;4.00;99.90
22779;DHT22;11556;51.194;3.800;2023-12-04T00:34:49;4.00;99.90
22779;DHT22;11556;51.194;3.800;2023-12-04T00:37:15;4.00;99.90
22779;DHT22;11556;51.194;3.800;2023-12-04T00:39:41;4.10;99.90
22779;DHT22;11556;51.194;3.800;2023-12-04T00:42:06;4.00;99.90
22779;DHT22;11556;51.194;3.800;2023-12-04T00:44:32;4.10;99.90
22779;DHT22;11556;51.194;3.800;2023-12-04T00:46:58;3.90;99.90
22779;DHT22;11556;51.194;3.800;2023-12-04T00:49:24;3.80;99.90
22779;DHT22;11556;51.194;3.800;2023-12-04T00:51:49;3.70;99.90
22779;DHT22;11556;51.194;3.800;2023-12-04T00:54:15;3.70;99.90
22779;DHT22;11556;51.194;3.800;2023-12-04T00:56:41;3.60;99.90
22779;DHT22;11556;51.194;3.800;2023-12-04T00:59:10;3.60;99.90
22779;DHT22;11556;51.194;3.800;2023-12-04T01:01:36;3.60;99.90
22779;DHT22;11556;51.194;3.800;2023-12-04T01:04:02;3.60;99.90
22779;DHT22;11556;51.194;3.800;2023-12-04T01:06:28;3.60;99.90
22779;DHT22;11556;51.194;3.800;2023-12-04T01:08:55;3.70;99.90
22779;DHT22;11556;51.194;3.800;2023-12-04T01:11:20;3.70;99.90
22779;DHT22;11556;51.194;3.800;2023-12-04T01:13:47;3.70;99.90
22779;DHT22;11556;51.194;3.800;2023-12-04T01:16:12;3.80;99.90
22779;DHT22;11556;51.194;3.800;2023-12-04T01:18:38;3.70;99.90
22779;DHT22;11556;51.194;3.800;2023-12-04T01:21:04;3.80;99.90
22779;DHT22;11556;51.194;3.800;2023-12-04T01:23:29;3.80;99.90
22779;DHT22;11556;51.194;3.800;2023-12-04T01:25:55;3.80;99.90
22779;DHT22;11556;51.194;3.800;2023-12-04T01:28:21;3.80;99.90
22779;DHT22;11556;51.194;3.800;2023-12-04T01:30:46;3.80;99.90
22779;DHT22;11556;51.194;3.800;2023-12-04T01:33:12;3.80;99.90
22779;DHT22;11556;51.194;3.800;2023-12-04T01:35:38;3.80;99.90
22779;DHT22;11556;51.194;3.800;2023-12-04T01:38:03;3.80;99.90
22779;DHT22;11556;51.194;3.800;2023-12-04T01:40:29;3.80;99.90
22779;DHT22;11556;51.194;3.800;2023-12-04T01:42:55;3.70;99.90
22779;DHT22;11556;51.194;3.800;2023-12-04T01:45:20;3.70;99.90
22779;DHT22;11556;51.194;3.800;2023-12-04T01:47:46;3.70;99.90
22779;DHT22;11556;51.194;3.800;2023-12-04T01:50:13;3.60;99.90
22779;DHT22;11556;51.194;3.800;2023-12-04T01:52:39;3.60;99.90
22779;DHT22;11556;51.194;3.800;2023-12-04T01:55:06;3.70;99.90
22779;DHT22;11556;51.194;3.800;2023-12-04T01:57:32;3.70;99.90
22779;DHT22;11556;51.194;3.800;2023-12-04T01:59:58;3.70;99.90
22779;DHT22;11556;51.194;3.800;2023-12-04T02:02:24;3.70;99.90
22779;DHT22;11556;51.194;3.800;2023-12-04T02:04:50;3.70;99.90
22779;DHT22;11556;51.194;3.800;2023-12-04T02:07:17;3.70;99.90
22779;DHT22;11556;51.194;3.800;2023-12-04T02:09:42;3.80;99.90
22779;DHT22;11556;51.194;3.800;2023-12-04T02:12:08;3.70;99.90
22779;DHT22;11556;51.194;3.800;2023-12-04T02:14:34;3.70;99.90
22779;DHT22;11556;51.194;3.800;2023-12-04T02:17:01;3.70;99.90
22779;DHT22;11556;51.194;3.800;2023-12-04T02:19:28;3.80;99.90
22779;DHT22;11556;51.194;3.800;2023-12-04T02:21:54;3.80;99.90
22779;DHT22;11556;51.194;3.800;2023-12-04T02:24:20;3.80;99.90
22779;DHT22;11556;51.194;3.800;2023-12-04T02:26:53;3.80;99.90
22779;DHT22;11556;51.194;3.800;2023-12-04T02:29:27;3.80;99.90
22779;DHT22;11556;51.194;3.800;2023-12-04T02:31:56;3.80;99.90
22779;DHT22;11556;51.194;3.800;2023-12-04T02:34:23;3.80;99.90
22779;DHT22;11556;51.194;3.800;2023-12-04T02:36:50;3.90;99.90
22779;DHT22;11556;51.194;3.800;2023-12-04T02:39:17;3.80;99.90
22779;DHT22;11556;51.194;3.800;2023-12-04T02:41:42;3.90;99.90
22779;DHT22;11556;51.194;3.800;2023-12-04T02:44:08;3.90;99.90
22779;DHT22;11556;51.194;3.800;2023-12-04T02:46:34;3.90;99.90
22779;DHT22;11556;51.194;3.800;2023-12-04T02:48:59;3.80;99.90
22779;DHT22;11556;51.194;3.800;2023-12-04T02:51:25;3.80;99.90
22779;DHT22;11556;51.194;3.800;2023-12-04T02:53:52;3.80;99.90
22779;DHT22;11556;51.194;3.800;2023-12-04T02:56:17;3.80;99.90
22779;DHT22;11556;51.194;3.800;2023-12-04T02:58:43;3.80;99.90
22779;DHT22;11556;51.194;3.800;2023-12-04T03:01:09;3.70;99.90
22779;DHT22;11556;51.194;3.800;2023-12-04T03:03:34;3.70;99.90
22779;DHT22;11556;51.194;3.800;2023-12-04T03:06:00;3.70;99.90
22779;DHT22;11556;51.194;3.800;2023-12-04T03:08:25;3.60;99.90
22779;DHT22;11556;51.194;3.800;2023-12-04T03:10:51;3.60;99.90
22779;DHT22;11556;51.194;3.800;2023-12-04T03:13:17;3.70;99.90
22779;DHT22;11556;51.194;3.800;2023-12-04T03:15:42;3.70;99.90
22779;DHT22;11556;51.194;3.800;2023-12-04T03:18:08;3.70;99.90
22779;DHT22;11556;51.194;3.800;2023-12-04T03:20:33;3.80;99.90
22779;DHT22;11556;51.194;3.800;2023-12-04T03:22:59;3.70;99.90
22779;DHT22;11556;51.194;3.800;2023-12-04T03:25:25;3.80;99.90
22779;DHT22;11556;51.194;3.800;2023-12-04T03:27:50;3.80;99.90
22779;DHT22;11556;51.194;3.800;2023-12-04T03:30:16;3.80;99.90
22779;DHT22;11556;51.194;3.800;2023-12-04T03:32:42;3.80;99.90
22779;DHT22;11556;51.194;3.800;2023-12-04T03:35:07;3.80;99.90
22779;DHT22;11556;51.194;3.800;2023-12-04T03:37:33;3.80;99.90
22779;DHT22;11556;51.194;3.800;2023-12-04T03:39:59;3.80;99.90
22779;DHT22;11556;51.194;3.800;2023-12-04T03:42:25;3.80;99.90
22779;DHT22;11556;51.194;3.800;2023-12-04T03:44:50;3.90;99.90
22779;DHT22;11556;51.194;3.800;2023-12-04T03:47:16;3.90;99.90
22779;DHT22;11556;51.194;3.800;2023-12-04T03:49:42;3.90;99.90
22779;DHT22;11556;51.194;3.800;2023-12-04T03:52:07;3.80;99.90
22779;DHT22;11556;51.194;3.800;2023-12-04T03:54:33;3.80;99.90
22779;DHT22;11556;51.194;3.800;2023-12-04T03:56:58;3.90;99.90
22779;DHT22;11556;51.194;3.800;2023-12-04T03:59:24;3.90;99.90
22779;DHT22;11556;51.194;3.800;2023-12-04T04:01:50;3.90;99.90
22779;DHT22;11556;51.194;3.800;2023-12-04T04:04:15;3.90;99.90
22779;DHT22;11556;51.194;3.800;2023-12-04T04:06:41;3.90;99.90
22779;DHT22;11556;51.194;3.800;2023-12-04T04:09:06;3.90;99.90
22779;DHT22;11556;51.194;3.800;2023-12-04T04:11:32;3.90;99.90
22779;DHT22;11556;51.194;3.800;2023-12-04T04:13:58;4.00;99.90
22779;DHT22;11556;51.194;3.800;2023-12-04T04:16:23;4.00;99.90
22779;DHT22;11556;51.194;3.800;2023-12-04T04:18:49;4.10;99.90
22779;DHT22;11556;51.194;3.800;2023-12-04T04:21:15;4.10;99.90
22779;DHT22;11556;51.194;3.800;2023-12-04T04:23:40;4.20;99.90
22779;DHT22;11556;51.194;3.800;2023-12-04T04:26:06;4.10;99.90
22779;DHT22;11556;51.194;3.800;2023-12-04T04:28:32;4.10;99.90
22779;DHT22;11556;51.194;3.800;2023-12-04T04:30:58;4.10;99.90
22779;DHT22;11556;51.194;3.800;2023-12-04T04:33:24;4.10;99.90
22779;DHT22;11556;51.194;3.800;2023-12-04T04:35:49;4.10;99.90
22779;DHT22;11556;51.194;3.800;2023-12-04T04:38:15;4.20;99.90
22779;DHT22;11556;51.194;3.800;2023-12-04T04:40:40;4.10;99.90
22779;DHT22;11556;51.194;3.800;2023-12-04T04:43:10;4.20;99.90
22779;DHT22;11556;51.194;3.800;2023-12-04T04:45:35;4.10;99.90
22779;DHT22;11556;51.194;3.800;2023-12-04T04:48:01;4.20;99.90
22779;DHT22;11556;51.194;3.800;2023-12-04T04:50:27;4.20;99.90
22779;DHT22;11556;51.194;3.800;2023-12-04T04:52:52;4.30;99.90
22779;DHT22;11556;51.194;3.800;2023-12-04T04:55:18;4.20;99.90
22779;DHT22;11556;51.194;3.800;2023-12-04T04:57:44;4.30;99.90
22779;DHT22;11556;51.194;3.800;2023-12-04T05:00:11;4.30;99.90
22779;DHT22;11556;51.194;3.800;2023-12-04T05:02:36;4.20;99.90
22779;DHT22;11556;51.194;3.800;2023-12-04T05:05:03;4.20;99.90
22779;DHT22;11556;51.194;3.800;2023-12-04T05:07:30;4.20;99.90
22779;DHT22;11556;51.194;3.800;2023-12-04T05:09:55;4.20;99.90
22779;DHT22;11556;51.194;3.800;2023-12-04T05:12:21;4.30;99.90
22779;DHT22;11556;51.194;3.800;2023-12-04T05:14:46;4.30;99.90
22779;DHT22;11556;51.194;3.800;2023-12-04T05:17:12;4.20;99.90
22779;DHT22;11556;51.194;3.800;2023-12-04T05:19:38;4.20;99.90
22779;DHT22;11556;51.194;3.800;2023-12-04T05:22:03;4.20;99.90
22779;DHT22;11556;51.194;3.800;2023-12-04T05:24:29;4.30;99.90
22779;DHT22;11556;51.194;3.800;2023-12-04T05:26:55;4.30;99.90
22779;DHT22;11556;51.194;3.800;2023-12-04T05:29:20;4.30;99.90
22779;DHT22;11556;51.194;3.800;2023-12-04T05:31:46;4.30;99.90
22779;DHT22;11556;51.194;3.800;2023-12-04T05:34:12;4.20;99.90
22779;DHT22;11556;51.194;3.800;2023-12-04T05:36:38;4.20;99.90
22779;DHT22;11556;51.194;3.800;2023-12-04T05:39:04;4.20;99.90
22779;DHT22;11556;51.194;3.800;2023-12-04T05:41:30;4.20;99.90
22779;DHT22;11556;51.194;3.800;2023-12-04T05:43:56;4.20;99.90
22779;DHT22;11556;51.194;3.800;2023-12-04T05:46:21;4.10;99.90
22779;DHT22;11556;51.194;3.800;2023-12-04T05:48:47;4.20;99.90
22779;DHT22;11556;51.194;3.800;2023-12-04T05:51:13;4.20;99.90
22779;DHT22;11556;51.194;3.800;2023-12-04T05:53:40;4.20;99.90
22779;DHT22;11556;51.194;3.800;2023-12-04T05:56:07;4.20;99.90
22779;DHT22;11556;51.194;3.800;2023-12-04T05:58:34;4.20;99.90
22779;DHT22;11556;51.194;3.800;2023-12-04T06:01:00;4.20;99.90
22779;DHT22;11556;51.194;3.800;2023-12-04T06:03:26;4.30;99.90
22779;DHT22;11556;51.194;3.800;2023-12-04T06:05:51;4.30;99.90
22779;DHT22;11556;51.194;3.800;2023-12-04T06:08:17;4.40;99.90
22779;DHT22;11556;51.194;3.800;2023-12-04T06:10:43;4.30;99.90
22779;DHT22;11556;51.194;3.800;2023-12-04T06:13:08;4.30;99.90
22779;DHT22;11556;51.194;3.800;2023-12-04T06:15:34;4.30;99.90
22779;DHT22;11556;51.194;3.800;2023-12-04T06:17:59;4.30;99.90
22779;DHT22;11556;51.194;3.800;2023-12-04T06:20:25;4.30;99.90
22779;DHT22;11556;51.194;3.800;2023-12-04T06:22:51;4.40;99.90
22779;DHT22;11556;51.194;3.800;2023-12-04T06:25:17;4.40;99.90
22779;DHT22;11556;51.194;3.800;2023-12-04T06:27:43;4.40;99.90
22779;DHT22;11556;51.194;3.800;2023-12-04T06:30:09;4.40;99.90
22779;DHT22;11556;51.194;3.800;2023-12-04T06:32:35;4.40;99.90
22779;DHT22;11556;51.194;3.800;2023-12-04T06:35:01;4.40;99.90
22779;DHT22;11556;51.194;3.800;2023-12-04T06:37:29;4.50;99.90
22779;DHT22;11556;51.194;3.800;2023-12-04T06:39:55;4.40;99.90
22779;DHT22;11556;51.194;3.800;2023-12-04T06:42:23;4.40;99.90
22779;DHT22;11556;51.194;3.800;2023-12-04T06:44:49;4.30;99.90
22779;DHT22;11556;51.194;3.800;2023-12-04T06:47:17;4.40;99.90
22779;DHT22;11556;51.194;3.800;2023-12-04T06:49:43;4.30;99.90
22779;DHT22;11556;51.194;3.800;2023-12-04T06:52:09;4.30;99.90
22779;DHT22;11556;51.194;3.800;2023-12-04T06:54:34;4.20;99.90
22779;DHT22;11556;51.194;3.800;2023-12-04T06:57:00;4.30;99.90
22779;DHT22;11556;51.194;3.800;2023-12-04T06:59:25;4.40;99.90
22779;DHT22;11556;51.194;3.800;2023-12-04T07:01:51;4.30;99.90
22779;DHT22;11556;51.194;3.800;2023-12-04T07:04:17;4.30;99.90
22779;DHT22;11556;51.194;3.800;2023-12-04T07:06:46;4.20;99.90
22779;DHT22;11556;51.194;3.800;2023-12-04T07:09:13;4.20;99.90
22779;DHT22;11556;51.194;3.800;2023-12-04T07:11:39;4.30;99.90
22779;DHT22;11556;51.194;3.800;2023-12-04T07:14:04;4.30;99.90
22779;DHT22;11556;51.194;3.800;2023-12-04T07:16:30;4.30;99.90
22779;DHT22;11556;51.194;3.800;2023-12-04T07:18:56;4.40;99.90
22779;DHT22;11556;51.194;3.800;2023-12-04T07:21:21;4.30;99.90
22779;DHT22;11556;51.194;3.800;2023-12-04T07:23:47;4.30;99.90
22779;DHT22;11556;51.194;3.800;2023-12-04T07:26:13;4.40;99.90
22779;DHT22;11556;51.194;3.800;2023-12-04T07:28:38;4.40;99.90
22779;DHT22;11556;51.194;3.800;2023-12-04T07:31:04;4.40;99.90
22779;DHT22;11556;51.194;3.800;2023-12-04T07:33:30;4.40;99.90
22779;DHT22;11556;51.194;3.800;2023-12-04T07:35:56;4.40;99.90
22779;DHT22;11556;51.194;3.800;2023-12-04T07:38:22;4.40;99.90
22779;DHT22;11556;51.194;3.800;2023-12-04T07:40:47;4.50;99.90
22779;DHT22;11556;51.194;3.800;2023-12-04T07:43:13;4.50;99.90
22779;DHT22;11556;51.194;3.800;2023-12-04T07:45:44;4.50;99.90
22779;DHT22;11556;51.194;3.800;2023-12-04T07:48:10;4.40;99.90
22779;DHT22;11556;51.194;3.800;2023-12-04T07:50:35;4.50;99.90
22779;DHT22;11556;51.194;3.800;2023-12-04T07:53:03;4.50;99.90
22779;DHT22;11556;51.194;3.800;2023-12-04T07:55:29;4.60;99.90
22779;DHT22;11556;51.194;3.800;2023-12-04T07:57:54;4.50;99.90
22779;DHT22;11556;51.194;3.800;2023-12-04T08:00:21;4.50;99.90
22779;DHT22;11556;51.194;3.800;2023-12-04T08:02:51;4.50;99.90
22779;DHT22;11556;51.194;3.800;2023-12-04T08:05:17;4.50;99.90
22779;DHT22;11556;51.194;3.800;2023-12-04T08:07:42;4.50;99.90
22779;DHT22;11556;51.194;3.800;2023-12-04T08:10:08;4.40;99.90
22779;DHT22;11556;51.194;3.800;2023-12-04T08:12:34;4.40;99.90
22779;DHT22;11556;51.194;3.800;2023-12-04T08:15:00;4.40;99.90
22779;DHT22;11556;51.194;3.800;2023-12-04T08:17:27;4.40;99.90
22779;DHT22;11556;51.194;3.800;2023-12-04T08:19:52;4.40;99.90
22779;DHT22;11556;51.194;3.800;2023-12-04T08:22:19;4.40;99.90
22779;DHT22;11556;51.194;3.800;2023-12-04T08:24:45;4.40;99.90
22779;DHT22;11556;51.194;3.800;2023-12-04T08:27:10;4.40;99.90
22779;DHT22;11556;51.194;3.800;2023-12-04T08:29:36;4.40;99.90
22779;DHT22;11556;51.194;3.800;2023-12-04T08:32:02;4.40;99.90
22779;DHT22;11556;51.194;3.800;2023-12-04T08:34:28;4.40;99.90
22779;DHT22;11556;51.194;3.800;2023-12-04T08:36:54;4.40;99.90
22779;DHT22;11556;51.194;3.800;2023-12-04T08:39:19;4.50;99.90
22779;DHT22;11556;51.194;3.800;2023-12-04T08:41:46;4.50;99.90
22779;DHT22;11556;51.194;3.800;2023-12-04T08:44:13;4.60;99.90
22779;DHT22;11556;51.194;3.800;2023-12-04T08:46:38;4.60;99.90
22779;DHT22;11556;51.194;3.800;2023-12-04T08:49:05;4.50;99.90
22779;DHT22;11556;51.194;3.800;2023-12-04T08:51:30;4.60;99.90
22779;DHT22;11556;51.194;3.800;2023-12-04T08:53:56;4.70;99.90
22779;DHT22;11556;51.194;3.800;2023-12-04T08:56:22;4.70;99.90
22779;DHT22;11556;51.194;3.800;2023-12-04T08:58:48;4.70;99.90
22779;DHT22;11556;51.194;3.800;2023-12-04T09:01:16;4.70;99.90
22779;DHT22;11556;51.194;3.800;2023-12-04T09:03:41;4.70;99.90
22779;DHT22;11556;51.194;3.800;2023-12-04T09:06:07;4.80;99.90
22779;DHT22;11556;51.194;3.800;2023-12-04T09:08:34;4.80;99.90
22779;DHT22;11556;51.194;3.800;2023-12-04T09:10:59;4.80;99.90
22779;DHT22;11556;51.194;3.800;2023-12-04T09:13:25;4.80;99.90
22779;DHT22;11556;51.194;3.800;2023-12-04T09:15:51;4.80;99.90
22779;DHT22;11556;51.194;3.800;2023-12-04T09:18:17;4.70;99.90
22779;DHT22;11556;51.194;3.800;2023-12-04T09:20:43;4.70;99.90
22779;DHT22;11556;51.194;3.800;2023-12-04T09:23:09;4.60;99.90
22779;DHT22;11556;51.194;3.800;2023-12-04T09:25:35;4.60;99.90
22779;DHT22;11556;51.194;3.800;2023-12-04T09:28:01;4.70;99.90
22779;DHT22;11556;51.194;3.800;2023-12-04T09:30:26;4.70;99.90
22779;DHT22;11556;51.194;3.800;2023-12-04T09:32:52;4.70;99.90
22779;DHT22;11556;51.194;3.800;2023-12-04T09:35:18;4.70;99.90
22779;DHT22;11556;51.194;3.800;2023-12-04T09:37:44;4.70;99.90
22779;DHT22;11556;51.194;3.800;2023-12-04T09:40:11;4.60;99.90
22779;DHT22;11556;51.194;3.800;2023-12-04T09:42:39;4.60;99.90
22779;DHT22;11556;51.194;3.800;2023-12-04T09:45:05;4.60;99.90
22779;DHT22;11556;51.194;3.800;2023-12-04T09:47:33;4.40;99.90
22779;DHT22;11556;51.194;3.800;2023-12-04T09:50:00;4.30;99.90
22779;DHT22;11556;51.194;3.800;2023-12-04T09:52:27;4.30;99.90
22779;DHT22;11556;51.194;3.800;2023-12-04T09:54:53;4.30;99.90
22779;DHT22;11556;51.194;3.800;2023-12-04T09:57:19;4.30;99.90
22779;DHT22;11556;51.194;3.800;2023-12-04T09:59:45;4.20;99.90
22779;DHT22;11556;51.194;3.800;2023-12-04T10:02:12;4.20;99.90
22779;DHT22;11556;51.194;3.800;2023-12-04T10:04:38;4.10;99.90
22779;DHT22;11556;51.194;3.800;2023-12-04T10:07:05;4.10;99.90
22779;DHT22;11556;51.194;3.800;2023-12-04T10:09:31;4.20;99.90
22779;DHT22;11556;51.194;3.800;2023-12-04T10:11:57;4.30;99.90
22779;DHT22;11556;51.194;3.800;2023-12-04T10:14:23;4.20;99.90
22779;DHT22;11556;51.194;3.800;2023-12-04T10:16:49;4.20;99.90
22779;DHT22;11556;51.194;3.800;2023-12-04T10:19:26;4.20;99.90
22779;DHT22;11556;51.194;3.800;2023-12-04T10:21:57;4.10;99.90
22779;DHT22;11556;51.194;3.800;2023-12-04T10:24:36;4.00;99.90
22779;DHT22;11556;51.194;3.800;2023-12-04T10:27:03;4.00;99.90
22779;DHT22;11556;51.194;3.800;2023-12-04T10:29:45;3.90;99.90
22779;DHT22;11556;51.194;3.800;2023-12-04T10:32:17;3.70;99.90
22779;DHT22;11556;51.194;3.800;2023-12-04T10:34:44;3.70;99.90
22779;DHT22;11556;51.194;3.800;2023-12-04T10:37:10;3.60;99.90
22779;DHT22;11556;51.194;3.800;2023-12-04T10:39:54;3.60;99.90
22779;DHT22;11556;51.194;3.800;2023-12-04T10:42:27;3.60;99.90
22779;DHT22;11556;51.194;3.800;2023-12-04T10:44:55;3.60;99.90
22779;DHT22;11556;51.194;3.800;2023-12-04T10:47:22;3.50;99.90
22779;DHT22;11556;51.194;3.800;2023-12-04T10:49:51;3.40;99.90
22779;DHT22;11556;51.194;3.800;2023-12-04T10:52:17;3.40;99.90
22779;DHT22;11556;51.194;3.800;2023-12-04T10:54:50;3.40;99.90
22779;DHT22;11556;51.194;3.800;2023-12-04T10:57:39;3.50;99.90
22779;DHT22;11556;51.194;3.800;2023-12-04T11:00:06;3.50;99.90
22779;DHT22;11556;51.194;3.800;2023-12-04T11:02:34;3.50;99.90
22779;DHT22;11556;51.194;3.800;2023-12-04T11:05:13;3.60;99.90
22779;DHT22;11556;51.194;3.800;2023-12-04T11:07:57;3.50;99.90
22779;DHT22;11556;51.194;3.800;2023-12-04T11:10:28;3.60;99.90
22779;DHT22;11556;51.194;3.800;2023-12-04T11:13:13;3.50;99.90
22779;DHT22;11556;51.194;3.800;2023-12-04T11:15:42;3.60;99.90
22779;DHT22;11556;51.194;3.800;2023-12-04T11:18:12;3.60;99.90
22779;DHT22;11556;51.194;3.800;2023-12-04T11:20:48;3.50;99.90
22779;DHT22;11556;51.194;3.800;2023-12-04T11:23:16;3.60;99.90
22779;DHT22;11556;51.194;3.800;2023-12-04T11:25:43;3.60;99.90
22779;DHT22;11556;51.194;3.800;2023-12-04T11:28:10;3.60;99.90
22779;DHT22;11556;51.194;3.800;2023-12-04T11:30:37;3.60;99.90
22779;DHT22;11556;51.194;3.800;2023-12-04T11:33:05;3.60;99.90
22779;DHT22;11556;51.194;3.800;2023-12-04T11:35:30;3.70;99.90
22779;DHT22;11556;51.194;3.800;2023-12-04T11:37:56;3.80;99.90
22779;DHT22;11556;51.194;3.800;2023-12-04T11:40:22;3.80;99.90
22779;DHT22;11556;51.194;3.800;2023-12-04T11:42:48;3.80;99.90
22779;DHT22;11556;51.194;3.800;2023-12-04T11:45:20;3.90;99.90
22779;DHT22;11556;51.194;3.800;2023-12-04T11:47:55;3.80;99.90
22779;DHT22;11556;51.194;3.800;2023-12-04T11:50:24;3.80;99.90
22779;DHT22;11556;51.194;3.800;2023-12-04T11:52:49;3.80;99.90
22779;DHT22;11556;51.194;3.800;2023-12-04T11:55:20;3.90;99.90
22779;DHT22;11556;51.194;3.800;2023-12-04T11:57:46;3.90;99.90
22779;DHT22;11556;51.194;3.800;2023-12-04T12:00:13;4.00;99.90
22779;DHT22;11556;51.194;3.800;2023-12-04T12:05:23;4.00;99.90
22779;DHT22;11556;51.194;3.800;2023-12-04T12:07:49;4.00;99.90
22779;DHT22;11556;51.194;3.800;2023-12-04T12:10:16;4.00;99.90
22779;DHT22;11556;51.194;3.800;2023-12-04T12:12:45;3.90;99.90
22779;DHT22;11556;51.194;3.800;2023-12-04T12:15:11;4.00;99.90
22779;DHT22;11556;51.194;3.800;2023-12-04T12:17:38;4.10;99.90
22779;DHT22;11556;51.194;3.800;2023-12-04T12:20:14;4.10;99.90
22779;DHT22;11556;51.194;3.800;2023-12-04T12:22:40;4.10;99.90
22779;DHT22;11556;51.194;3.800;2023-12-04T12:25:10;4.10;99.90
22779;DHT22;11556;51.194;3.800;2023-12-04T12:27:36;4.10;99.90
22779;DHT22;11556;51.194;3.800;2023-12-04T12:30:03;4.00;99.90
22779;DHT22;11556;51.194;3.800;2023-12-04T12:32:31;4.10;99.90
22779;DHT22;11556;51.194;3.800;2023-12-04T12:34:56;4.10;99.90
22779;DHT22;11556;51.194;3.800;2023-12-04T12:37:22;4.10;99.90
22779;DHT22;11556;51.194;3.800;2023-12-04T12:39:48;4.10;99.90
22779;DHT22;11556;51.194;3.800;2023-12-04T12:42:26;4.10;99.90
22779;DHT22;11556;51.194;3.800;2023-12-04T12:44:53;4.00;99.90
22779;DHT22;11556;51.194;3.800;2023-12-04T12:47:19;4.10;99.90
22779;DHT22;11556;51.194;3.800;2023-12-04T12:49:45;4.10;99.90
22779;DHT22;11556;51.194;3.800;2023-12-04T12:52:11;4.10;99.90
22779;DHT22;11556;51.194;3.800;2023-12-04T12:54:38;4.20;99.90
22779;DHT22;11556;51.194;3.800;2023-12-04T12:57:04;4.20;99.90
22779;DHT22;11556;51.194;3.800;2023-12-04T12:59:30;4.20;99.90
22779;DHT22;11556;51.194;3.800;2023-12-04T13:01:55;4.20;99.90
22779;DHT22;11556;51.194;3.800;2023-12-04T13:04:22;4.20;99.90
22779;DHT22;11556;51.194;3.800;2023-12-04T13:06:48;4.30;99.90
22779;DHT22;11556;51.194;3.800;2023-12-04T13:09:14;4.40;99.90
22779;DHT22;11556;51.194;3.800;2023-12-04T13:11:44;4.30;99.90
22779;DHT22;11556;51.194;3.800;2023-12-04T13:14:10;4.40;99.90
22779;DHT22;11556;51.194;3.800;2023-12-04T13:16:36;4.40;99.90
22779;DHT22;11556;51.194;3.800;2023-12-04T13:19:01;4.40;99.90
22779;DHT22;11556;51.194;3.800;2023-12-04T13:21:27;4.30;99.90
22779;DHT22;11556;51.194;3.800;2023-12-04T13:23:54;4.40;99.90
22779;DHT22;11556;51.194;3.800;2023-12-04T13:26:20;4.40;99.90
22779;DHT22;11556;51.194;3.800;2023-12-04T13:28:47;4.40;99.90
22779;DHT22;11556;51.194;3.800;2023-12-04T13:31:13;4.50;99.90
22779;DHT22;11556;51.194;3.800;2023-12-04T13:33:39;4.50;99.90
22779;DHT22;11556;51.194;3.800;2023-12-04T13:36:05;4.50;99.90
22779;DHT22;11556;51.194;3.800;2023-12-04T13:38:30;4.50;99.90
22779;DHT22;11556;51.194;3.800;2023-12-04T13:40:58;4.60;99.90
22779;DHT22;11556;51.194;3.800;2023-12-04T13:43:47;4.50;99.90
22779;DHT22;11556;51.194;3.800;2023-12-04T13:46:16;4.50;99.90
22779;DHT22;11556;51.194;3.800;2023-12-04T13:48:41;4.50;99.90
22779;DHT22;11556;51.194;3.800;2023-12-04T13:51:11;4.50;99.90
22779;DHT22;11556;51.194;3.800;2023-12-04T13:53:37;4.50;99.90
22779;DHT22;11556;51.194;3.800;2023-12-04T13:56:08;4.40;99.90
22779;DHT22;11556;51.194;3.800;2023-12-04T13:58:46;4.40;99.90
22779;DHT22;11556;51.194;3.800;2023-12-04T14:01:14;4.30;99.90
22779;DHT22;11556;51.194;3.800;2023-12-04T14:03:42;4.40;99.90
22779;DHT22;11556;51.194;3.800;2023-12-04T14:06:09;4.30;99.90
22779;DHT22;11556;51.194;3.800;2023-12-04T14:08:35;4.30;99.90
22779;DHT22;11556;51.194;3.800;2023-12-04T14:11:02;4.20;99.90
22779;DHT22;11556;51.194;3.800;2023-12-04T14:13:28;4.10;99.90
22779;DHT22;11556;51.194;3.800;2023-12-04T14:15:53;4.00;99.90
22779;DHT22;11556;51.194;3.800;2023-12-04T14:18:20;4.00;99.90
22779;DHT22;11556;51.194;3.800;2023-12-04T14:20:46;4.00;99.90
22779;DHT22;11556;51.194;3.800;2023-12-04T14:23:13;3.90;99.90
22779;DHT22;11556;51.194;3.800;2023-12-04T14:25:40;3.80;99.90
22779;DHT22;11556;51.194;3.800;2023-12-04T14:28:06;3.80;99.90
22779;DHT22;11556;51.194;3.800;2023-12-04T14:30:32;3.80;99.90
22779;DHT22;11556;51.194;3.800;2023-12-04T14:32:58;3.80;99.90
22779;DHT22;11556;51.194;3.800;2023-12-04T14:35:24;3.80;99.90
22779;DHT22;11556;51.194;3.800;2023-12-04T14:37:49;3.70;99.90
22779;DHT22;11556;51.194;3.800;2023-12-04T14:40:16;3.70;99.90
22779;DHT22;11556;51.194;3.800;2023-12-04T14:42:43;3.70;99.90
22779;DHT22;11556;51.194;3.800;2023-12-04T14:45:10;3.60;99.90
22779;DHT22;11556;51.194;3.800;2023-12-04T14:47:35;3.60;99.90
22779;DHT22;11556;51.194;3.800;2023-12-04T14:50:03;3.60;99.90
22779;DHT22;11556;51.194;3.800;2023-12-04T14:52:32;3.60;99.90
22779;DHT22;11556;51.194;3.800;2023-12-04T14:54:59;3.60;99.90
22779;DHT22;11556;51.194;3.800;2023-12-04T14:57:31;3.60;99.90
22779;DHT22;11556;51.194;3.800;2023-12-04T15:00:10;3.60;99.90
22779;DHT22;11556;51.194;3.800;2023-12-04T15:02:39;3.60;99.90
22779;DHT22;11556;51.194;3.800;2023-12-04T15:05:23;3.50;99.90
22779;DHT22;11556;51.194;3.800;2023-12-04T15:08:09;3.50;99.90
22779;DHT22;11556;51.194;3.800;2023-12-04T15:10:50;3.50;99.90
22779;DHT22;11556;51.194;3.800;2023-12-04T15:13:34;3.60;99.90
22779;DHT22;11556;51.194;3.800;2023-12-04T15:16:09;3.60;99.90
22779;DHT22;11556;51.194;3.800;2023-12-04T15:18:53;3.60;99.90
22779;DHT22;11556;51.194;3.800;2023-12-04T15:21:19;3.60;99.90
22779;DHT22;11556;51.194;3.800;2023-12-04T15:23:47;3.60;99.90
22779;DHT22;11556;51.194;3.800;2023-12-04T15:26:13;3.60;99.90
22779;DHT22;11556;51.194;3.800;2023-12-04T15:28:38;3.60;99.90
22779;DHT22;11556;51.194;3.800;2023-12-04T15:31:04;3.60;99.90
22779;DHT22;11556;51.194;3.800;2023-12-04T15:33:30;3.60;99.90
22779;DHT22;11556;51.194;3.800;2023-12-04T15:35:56;3.60;99.90
22779;DHT22;11556;51.194;3.800;2023-12-04T15:38:22;3.60;99.90
22779;DHT22;11556;51.194;3.800;2023-12-04T15:40:48;3.60;99.90
22779;DHT22;11556;51.194;3.800;2023-12-04T15:43:14;3.60;99.90
22779;DHT22;11556;51.194;3.800;2023-12-04T15:45:40;3.60;99.90